createdAt,value
2022-12-23T00:01:50.301Z,6.97
2022-12-23T00:04:17.022Z,5.47
2022-12-23T00:06:43.638Z,4.57
2022-12-23T00:09:10.200Z,4.37
2022-12-23T00:11:36.792Z,5.47
2022-12-23T00:14:22.209Z,7.53
2022-12-23T00:16:50.317Z,6.07
2022-12-23T00:19:17.107Z,4.67
2022-12-23T00:21:43.677Z,5.50
2022-12-23T00:24:11.915Z,4.80
2022-12-23T00:26:38.708Z,3.73
2022-12-23T00:29:05.264Z,6.07
2022-12-23T00:31:31.849Z,7.80
2022-12-23T00:33:58.617Z,4.67
2022-12-23T00:36:30.957Z,5.37
2022-12-23T00:39:17.774Z,8.60
2022-12-23T00:42:23.358Z,7.53
2022-12-23T00:44:49.906Z,4.57
2022-12-23T00:47:36.577Z,5.20
2022-12-23T00:50:03.232Z,5.93
2022-12-23T00:52:30.034Z,9.30
2022-12-23T00:54:56.710Z,5.03
2022-12-23T00:57:23.304Z,5.63
2022-12-23T00:59:50.043Z,5.13
2022-12-23T01:02:35.280Z,6.37
2022-12-23T01:05:20.380Z,9.30
2022-12-23T01:07:46.938Z,4.50
2022-12-23T01:10:13.713Z,5.40
2022-12-23T01:12:40.371Z,7.37
2022-12-23T01:15:07.538Z,8.40
2022-12-23T01:17:34.120Z,6.97
2022-12-23T01:20:00.719Z,6.10
2022-12-23T01:22:27.304Z,8.90
2022-12-23T01:24:53.847Z,7.30
2022-12-23T01:27:20.392Z,4.50
2022-12-23T01:29:46.939Z,7.97
2022-12-23T01:32:14.126Z,7.63
2022-12-23T01:34:40.755Z,8.17
2022-12-23T01:37:07.402Z,6.17
2022-12-23T01:39:33.970Z,8.07
2022-12-23T01:42:19.186Z,5.47
2022-12-23T01:44:57.759Z,6.40
2022-12-23T01:47:38.884Z,6.10
2022-12-23T01:50:08.233Z,8.50
2022-12-23T01:52:39.822Z,7.23
2022-12-23T01:55:07.303Z,7.20
2022-12-23T01:57:36.100Z,10.10
2022-12-23T02:00:21.954Z,7.30
2022-12-23T02:03:10.342Z,7.27
2022-12-23T02:05:38.267Z,7.27
2022-12-23T02:08:23.415Z,12.27
2022-12-23T02:11:11.718Z,8.20
2022-12-23T02:14:09.976Z,8.17
2022-12-23T02:16:48.260Z,6.00
2022-12-23T02:19:22.700Z,3.40
2022-12-23T02:22:18.452Z,4.67
2022-12-23T02:25:05.057Z,6.37
2022-12-23T02:27:54.506Z,5.07
2022-12-23T02:31:00.923Z,6.23
2022-12-23T02:33:53.682Z,4.23
2022-12-23T02:36:36.386Z,6.57
2022-12-23T02:39:11.977Z,4.87
2022-12-23T02:41:57.303Z,8.13
2022-12-23T02:44:32.880Z,8.80
2022-12-23T02:47:06.242Z,8.90
2022-12-23T02:49:38.039Z,6.90
2022-12-23T02:52:12.613Z,5.53
2022-12-23T02:54:44.816Z,7.90
2022-12-23T02:57:14.873Z,5.40
2022-12-23T02:59:46.875Z,9.47
2022-12-23T03:02:13.694Z,6.50
2022-12-23T03:04:41.985Z,4.40
2022-12-23T03:07:30.426Z,7.87
2022-12-23T03:10:14.958Z,7.03
2022-12-23T03:13:16.507Z,5.13
2022-12-23T03:15:51.962Z,5.50
2022-12-23T03:18:44.169Z,5.80
2022-12-23T03:21:22.515Z,3.97
2022-12-23T03:23:58.242Z,5.47
2022-12-23T03:26:39.314Z,6.03
2022-12-23T03:29:34.179Z,8.67
2022-12-23T03:32:02.607Z,7.10
2022-12-23T03:34:34.152Z,6.27
2022-12-23T03:37:05.827Z,6.93
2022-12-23T03:39:55.046Z,5.30
2022-12-23T03:42:41.331Z,3.83
2022-12-23T03:48:07.311Z,3.10
2022-12-23T03:50:36.309Z,5.77
2022-12-23T03:53:10.026Z,2.70
2022-12-23T03:55:54.013Z,3.60
2022-12-23T03:58:34.915Z,2.93
2022-12-23T04:01:07.311Z,3.53
2022-12-23T04:03:45.483Z,5.20
2022-12-23T04:06:16.428Z,5.07
2022-12-23T04:08:46.190Z,4.27
2022-12-23T04:11:13.049Z,3.77
2022-12-23T04:13:39.966Z,4.00
2022-12-23T04:16:07.465Z,4.63
2022-12-23T04:18:34.072Z,6.90
2022-12-23T04:21:00.809Z,7.87
2022-12-23T04:23:27.360Z,7.47
2022-12-23T04:25:53.927Z,6.87
2022-12-23T04:28:20.629Z,5.90
2022-12-23T04:30:47.182Z,5.47
2022-12-23T04:33:13.783Z,7.33
2022-12-23T04:35:40.331Z,7.20
2022-12-23T04:38:07.597Z,4.83
2022-12-23T04:40:34.249Z,6.50
2022-12-23T04:43:00.865Z,6.77
2022-12-23T04:45:29.568Z,10.17
2022-12-23T04:47:56.198Z,7.60
2022-12-23T04:50:23.070Z,7.13
2022-12-23T04:52:49.613Z,6.63
2022-12-23T04:55:16.200Z,10.50
2022-12-23T04:57:42.793Z,8.43
2022-12-23T05:00:10.044Z,7.00
2022-12-23T05:02:37.475Z,4.23
2022-12-23T05:05:04.612Z,4.27
2022-12-23T05:07:31.180Z,5.97
2022-12-23T05:10:01.581Z,7.13
2022-12-23T05:12:31.895Z,6.60
2022-12-23T05:14:58.514Z,7.97
2022-12-23T05:17:25.212Z,7.73
2022-12-23T05:19:51.790Z,4.53
2022-12-23T05:22:18.575Z,5.63
2022-12-23T05:24:45.822Z,5.93
2022-12-23T05:27:12.361Z,7.77
2022-12-23T05:29:38.908Z,6.37
2022-12-23T05:32:05.762Z,4.53
2022-12-23T05:34:32.383Z,5.97
2022-12-23T05:36:59.000Z,5.47
2022-12-23T05:39:25.596Z,5.37
2022-12-23T05:41:52.213Z,8.23
2022-12-23T05:44:18.938Z,8.23
2022-12-23T05:46:45.487Z,6.57
2022-12-23T05:49:12.049Z,5.73
2022-12-23T05:51:38.583Z,9.63
2022-12-23T05:54:05.220Z,8.83
2022-12-23T05:56:31.795Z,7.20
2022-12-23T05:58:58.330Z,6.23
2022-12-23T06:01:24.920Z,5.17
2022-12-23T06:03:51.543Z,6.07
2022-12-23T06:06:18.212Z,7.27
2022-12-23T06:08:44.782Z,10.00
2022-12-23T06:11:12.675Z,7.77
2022-12-23T06:13:39.473Z,7.80
2022-12-23T06:16:06.522Z,5.57
2022-12-23T06:18:33.121Z,6.70
2022-12-23T06:20:59.677Z,5.87
2022-12-23T06:23:26.243Z,6.70
2022-12-23T06:25:59.914Z,6.53
2022-12-23T06:28:27.380Z,6.00
2022-12-23T06:30:57.443Z,6.10
2022-12-23T06:33:24.943Z,5.97
2022-12-23T06:35:51.486Z,5.27
2022-12-23T06:38:18.053Z,6.73
2022-12-23T06:40:44.614Z,7.07
2022-12-23T06:43:13.253Z,6.47
2022-12-23T06:45:40.394Z,5.63
2022-12-23T06:48:07.477Z,4.67
2022-12-23T06:50:34.055Z,7.03
2022-12-23T06:53:00.660Z,7.03
2022-12-23T06:55:27.281Z,6.23
2022-12-23T06:57:53.888Z,6.30
2022-12-23T07:00:20.667Z,7.93
2022-12-23T07:02:47.480Z,5.97
2022-12-23T07:05:14.219Z,6.33
2022-12-23T07:07:40.757Z,9.77
2022-12-23T07:10:08.131Z,8.50
2022-12-23T07:12:34.730Z,6.63
2022-12-23T07:15:01.623Z,4.63
2022-12-23T07:17:28.314Z,7.57
2022-12-23T07:19:54.898Z,7.47
2022-12-23T07:22:21.511Z,5.77
2022-12-23T07:24:48.090Z,8.70
2022-12-23T07:27:14.670Z,6.20
2022-12-23T07:29:41.252Z,6.73
2022-12-23T07:32:07.986Z,10.70
2022-12-23T07:34:34.643Z,10.00
2022-12-23T07:37:01.291Z,9.97
2022-12-23T07:39:28.418Z,11.87
2022-12-23T07:42:16.504Z,10.83
2022-12-23T07:44:41.490Z,11.30
2022-12-23T07:47:08.672Z,10.83
2022-12-23T07:49:35.291Z,8.97
2022-12-23T07:52:01.836Z,10.17
2022-12-23T07:54:28.657Z,9.73
2022-12-23T07:56:56.032Z,8.97
2022-12-23T07:59:25.651Z,11.63
2022-12-23T08:01:52.354Z,9.77
2022-12-23T08:04:19.017Z,7.20
2022-12-23T08:06:45.633Z,10.17
2022-12-23T08:09:12.217Z,12.37
2022-12-23T08:11:38.784Z,10.73
2022-12-23T08:14:05.332Z,10.40
2022-12-23T08:16:34.309Z,7.53
2022-12-23T08:19:04.479Z,9.53
2022-12-23T08:21:31.060Z,8.83
2022-12-23T08:23:57.607Z,9.63
2022-12-23T08:26:24.863Z,9.43
2022-12-23T08:28:53.459Z,13.37
2022-12-23T08:31:23.409Z,8.63
2022-12-23T08:33:52.457Z,7.57
2022-12-23T08:36:23.537Z,7.23
2022-12-23T08:38:52.404Z,6.63
2022-12-23T08:41:28.090Z,8.70
2022-12-23T08:43:55.547Z,6.50
2022-12-23T08:46:23.559Z,8.77
2022-12-23T08:48:50.677Z,6.37
2022-12-23T08:51:19.153Z,5.40
2022-12-23T08:53:46.233Z,6.23
2022-12-23T08:56:15.944Z,7.77
2022-12-23T08:58:45.421Z,6.07
2022-12-23T09:01:14.772Z,6.50
2022-12-23T09:03:42.805Z,6.77
2022-12-23T09:06:16.224Z,5.53
2022-12-23T09:08:43.299Z,8.33
2022-12-23T09:11:18.023Z,6.73
2022-12-23T09:13:45.313Z,11.47
2022-12-23T09:16:12.283Z,6.47
2022-12-23T09:18:39.253Z,6.57
2022-12-23T09:21:07.662Z,8.33
2022-12-23T09:23:34.728Z,8.93
2022-12-23T09:26:01.355Z,6.90
2022-12-23T09:28:27.920Z,12.10
2022-12-23T09:30:54.560Z,9.73
2022-12-23T09:33:21.274Z,8.23
2022-12-23T09:35:47.904Z,9.13
2022-12-23T09:38:14.499Z,8.33
2022-12-23T09:40:42.302Z,8.43
2022-12-23T09:43:39.860Z,7.57
2022-12-23T09:46:19.214Z,9.93
2022-12-23T09:48:58.956Z,8.33
2022-12-23T09:51:26.223Z,10.37
2022-12-23T09:54:03.083Z,10.13
2022-12-23T09:56:52.824Z,10.13
2022-12-23T09:59:25.146Z,8.90
2022-12-23T10:02:05.039Z,8.57
2022-12-23T10:04:47.355Z,6.77
2022-12-23T10:07:31.659Z,8.67
2022-12-23T10:10:02.852Z,8.17
2022-12-23T10:12:40.756Z,11.20
2022-12-23T10:15:28.230Z,11.87
2022-12-23T10:17:58.932Z,9.70
2022-12-23T10:20:37.507Z,7.33
2022-12-23T10:23:08.652Z,8.57
2022-12-23T10:25:46.258Z,8.70
2022-12-23T10:28:12.834Z,9.87
2022-12-23T10:31:05.837Z,7.20
2022-12-23T10:33:43.595Z,7.97
2022-12-23T10:36:17.050Z,9.03
2022-12-23T10:39:09.591Z,9.67
2022-12-23T10:42:02.631Z,7.00
2022-12-23T10:44:54.191Z,9.70
2022-12-23T10:47:38.941Z,9.77
2022-12-23T10:50:46.009Z,8.10
2022-12-23T10:53:19.967Z,7.33
2022-12-23T10:55:48.829Z,7.37
2022-12-23T10:58:18.290Z,12.50
2022-12-23T11:00:51.399Z,9.20
2022-12-23T11:03:28.655Z,6.83
2022-12-23T11:05:56.728Z,6.73
2022-12-23T11:08:25.785Z,8.17
2022-12-23T11:10:53.737Z,7.97
2022-12-23T11:13:35.124Z,8.93
2022-12-23T11:16:25.167Z,10.90
2022-12-23T11:18:57.516Z,7.83
2022-12-23T11:21:24.468Z,7.80
2022-12-23T11:24:27.924Z,6.90
2022-12-23T11:27:03.259Z,6.23
2022-12-23T11:29:37.139Z,9.07
2022-12-23T11:32:16.373Z,6.50
2022-12-23T11:34:45.732Z,10.07
2022-12-23T11:37:40.359Z,4.90
2022-12-23T11:40:32.563Z,4.77
2022-12-23T11:43:02.841Z,5.30
2022-12-23T11:45:33.948Z,5.27
2022-12-23T11:48:00.756Z,5.73
2022-12-23T11:50:36.321Z,4.20
2022-12-23T11:53:14.575Z,4.30
2022-12-23T11:56:05.296Z,4.23
2022-12-23T11:58:46.233Z,4.17
2022-12-23T12:01:21.257Z,5.50
2022-12-23T12:04:00.226Z,4.30
2022-12-23T12:06:27.708Z,5.60
2022-12-23T12:08:57.800Z,3.90
2022-12-23T12:11:36.356Z,6.10
2022-12-23T12:14:05.488Z,6.47
2022-12-23T12:16:54.199Z,6.33
2022-12-23T12:19:59.272Z,4.67
2022-12-23T12:22:38.321Z,4.73
2022-12-23T12:25:17.577Z,5.10
2022-12-23T12:27:53.748Z,4.50
2022-12-23T12:30:21.656Z,8.03
2022-12-23T12:33:00.987Z,4.70
2022-12-23T12:35:40.439Z,5.07
2022-12-23T12:38:19.701Z,4.77
2022-12-23T12:40:51.063Z,4.60
2022-12-23T12:43:28.226Z,4.73
2022-12-23T12:46:32.099Z,4.53
2022-12-23T12:49:20.729Z,4.77
2022-12-23T12:51:58.297Z,4.87
2022-12-23T12:54:26.963Z,5.20
2022-12-23T12:56:58.433Z,5.50
2022-12-23T12:59:38.627Z,5.87
2022-12-23T13:02:45.326Z,5.10
2022-12-23T13:05:30.832Z,5.07
2022-12-23T13:08:06.776Z,4.93
2022-12-23T13:10:55.639Z,4.90
2022-12-23T13:13:30.469Z,4.60
2022-12-23T13:16:23.827Z,4.60
2022-12-23T13:19:08.960Z,5.73
2022-12-23T13:22:05.903Z,4.60
2022-12-23T13:24:38.783Z,4.80
2022-12-23T13:27:17.037Z,4.50
2022-12-23T13:29:57.962Z,4.80
2022-12-23T13:32:41.081Z,4.50
2022-12-23T13:35:24.307Z,4.40
2022-12-23T13:38:17.544Z,4.00
2022-12-23T13:41:08.664Z,3.90
2022-12-23T13:44:02.107Z,3.13
2022-12-23T13:46:56.343Z,2.63
2022-12-23T13:49:40.553Z,2.83
2022-12-23T13:52:22.901Z,2.90
2022-12-23T13:55:21.729Z,2.40
2022-12-23T13:58:07.214Z,2.10
2022-12-23T14:00:34.704Z,2.73
2022-12-23T14:03:01.254Z,2.43
2022-12-23T14:05:35.829Z,3.23
2022-12-23T14:08:20.988Z,3.00
2022-12-23T14:10:58.464Z,2.43
2022-12-23T14:13:28.579Z,2.40
2022-12-23T14:16:15.372Z,2.10
2022-12-23T14:19:14.108Z,1.47
2022-12-23T14:21:49.082Z,1.20
2022-12-23T14:24:25.737Z,1.20
2022-12-23T14:27:16.966Z,1.20
2022-12-23T14:30:09.394Z,1.40
2022-12-23T14:32:47.073Z,1.10
2022-12-23T14:35:27.124Z,1.20
2022-12-23T14:38:09.542Z,1.50
2022-12-23T14:40:39.260Z,1.50
2022-12-23T14:43:50.971Z,1.23
2022-12-23T14:46:35.888Z,1.50
2022-12-23T14:49:36.885Z,1.30
2022-12-23T14:51:50.970Z,1.30
2022-12-23T14:54:36.329Z,1.43
2022-12-23T14:57:16.567Z,1.50
2022-12-23T15:00:10.058Z,1.80
2022-12-23T15:02:40.768Z,2.27
2022-12-23T15:05:09.502Z,1.73
2022-12-23T15:07:40.550Z,1.80
2022-12-23T15:10:16.800Z,1.87
2022-12-23T15:12:47.606Z,2.17
2022-12-23T15:15:33.651Z,1.60
2022-12-23T15:18:06.284Z,1.60
2022-12-23T15:20:34.932Z,1.87
2022-12-23T15:23:08.392Z,1.30
2022-12-23T15:25:40.744Z,1.50
2022-12-23T15:28:19.129Z,1.60
2022-12-23T15:30:53.503Z,2.10
2022-12-23T15:34:00.997Z,2.20
2022-12-23T15:36:10.424Z,2.20
2022-12-23T15:38:38.938Z,2.23
2022-12-23T15:41:14.253Z,2.13
2022-12-23T15:43:42.608Z,2.37
2022-12-23T15:46:18.904Z,2.10
2022-12-23T15:48:48.311Z,3.03
2022-12-23T15:51:57.751Z,1.90
2022-12-23T15:54:27.384Z,1.40
2022-12-23T15:56:56.587Z,1.27
2022-12-23T15:59:38.266Z,1.50
2022-12-23T16:02:50.192Z,1.20
2022-12-23T16:05:08.177Z,1.83
2022-12-23T16:07:38.242Z,1.60
2022-12-23T16:10:16.345Z,1.87
2022-12-23T16:12:43.669Z,1.67
2022-12-23T16:15:25.002Z,2.10
2022-12-23T16:17:51.719Z,2.13
2022-12-23T16:20:26.047Z,2.57
2022-12-23T16:23:01.563Z,3.83
2022-12-23T16:25:32.924Z,1.83
2022-12-23T16:28:14.450Z,1.97
2022-12-23T16:30:42.447Z,3.03
2022-12-23T16:33:27.872Z,3.53
2022-12-23T16:35:55.769Z,1.70
2022-12-23T16:38:22.392Z,1.93
2022-12-23T16:40:51.146Z,5.70
2022-12-23T16:43:18.888Z,1.80
2022-12-23T16:45:47.746Z,2.57
2022-12-23T16:48:32.300Z,4.10
2022-12-23T16:51:00.519Z,3.33
2022-12-23T16:53:27.560Z,5.10
2022-12-23T16:56:00.292Z,3.37
2022-12-23T16:58:27.613Z,3.60
2022-12-23T17:00:54.458Z,6.97
2022-12-23T17:03:21.320Z,3.70
2022-12-23T17:05:48.643Z,3.93
2022-12-23T17:08:15.499Z,6.37
2022-12-23T17:10:44.451Z,3.77
2022-12-23T17:13:17.027Z,3.50
2022-12-23T17:15:43.775Z,8.83
2022-12-23T17:18:17.289Z,5.77
2022-12-23T17:20:45.961Z,4.57
2022-12-23T17:23:29.201Z,4.30
2022-12-23T17:25:55.935Z,10.67
2022-12-23T17:28:23.234Z,6.90
2022-12-23T17:30:54.684Z,3.90
2022-12-23T17:33:23.959Z,8.67
2022-12-23T17:35:50.500Z,9.27
2022-12-23T17:38:17.231Z,9.47
2022-12-23T17:40:46.802Z,9.63
2022-12-23T17:43:15.558Z,9.77
2022-12-23T17:45:42.666Z,7.50
2022-12-23T17:48:19.947Z,5.37
2022-12-23T17:50:48.680Z,11.80
2022-12-23T17:53:19.657Z,7.23
2022-12-23T17:55:46.805Z,14.57
2022-12-23T17:58:14.207Z,9.73
2022-12-23T18:00:41.057Z,12.00
2022-12-23T18:03:15.752Z,9.87
2022-12-23T18:05:42.425Z,6.13
2022-12-23T18:08:08.969Z,13.40
2022-12-23T18:10:39.020Z,7.87
2022-12-23T18:13:09.489Z,19.23
2022-12-23T18:15:38.435Z,12.43
2022-12-23T18:18:27.288Z,8.50
2022-12-23T18:20:58.212Z,10.10
2022-12-23T18:23:30.168Z,8.77
2022-12-23T18:25:57.512Z,16.40
2022-12-23T18:28:24.840Z,7.13
2022-12-23T18:30:54.485Z,9.80
2022-12-23T18:33:21.109Z,12.13
2022-12-23T18:35:51.277Z,12.63
2022-12-23T18:38:18.053Z,9.27
2022-12-23T18:40:45.156Z,10.40
2022-12-23T18:43:23.887Z,9.33
2022-12-23T18:45:53.809Z,9.27
2022-12-23T18:48:21.173Z,5.63
2022-12-23T18:50:47.733Z,8.40
2022-12-23T18:53:23.434Z,6.60
2022-12-23T18:55:51.202Z,13.80
2022-12-23T18:58:18.576Z,12.67
2022-12-23T19:00:45.752Z,18.07
2022-12-23T19:03:23.474Z,10.93
2022-12-23T19:05:51.100Z,9.73
2022-12-23T19:08:25.403Z,5.63
2022-12-23T19:10:53.953Z,15.27
2022-12-23T19:13:20.604Z,9.20
2022-12-23T19:15:47.248Z,15.33
2022-12-23T19:18:20.448Z,5.17
2022-12-23T19:20:48.615Z,12.07
2022-12-23T19:23:16.084Z,9.50
2022-12-23T19:25:49.204Z,9.97
2022-12-23T19:28:21.739Z,8.87
2022-12-23T19:30:48.616Z,12.07
2022-12-23T19:33:15.466Z,5.17
2022-12-23T19:35:42.763Z,12.97
2022-12-23T19:38:10.177Z,15.80
2022-12-23T19:40:36.831Z,8.97
2022-12-23T19:43:04.025Z,8.23
2022-12-23T19:45:30.578Z,8.10
2022-12-23T19:47:57.148Z,6.77
2022-12-23T19:50:23.744Z,12.57
2022-12-23T19:52:50.651Z,15.23
2022-12-23T19:55:17.461Z,8.53
2022-12-23T19:57:44.201Z,7.77
2022-12-23T20:00:11.312Z,11.70
2022-12-23T20:02:37.975Z,11.73
2022-12-23T20:05:05.266Z,8.40
2022-12-23T20:07:31.843Z,15.03
2022-12-23T20:09:58.374Z,13.60
2022-12-23T20:12:26.317Z,6.93
2022-12-23T20:14:52.873Z,6.53
2022-12-23T20:17:19.670Z,10.50
2022-12-23T20:19:46.624Z,18.87
2022-12-23T20:22:13.608Z,5.30
2022-12-23T20:24:40.225Z,6.43
2022-12-23T20:27:11.407Z,15.30
2022-12-23T20:29:38.602Z,13.70
2022-12-23T20:32:05.500Z,5.87
2022-12-23T20:34:38.668Z,8.67
2022-12-23T20:37:06.593Z,10.40
2022-12-23T20:39:33.281Z,9.87
2022-12-23T20:41:59.863Z,8.17
2022-12-23T20:44:35.579Z,13.53
2022-12-23T20:47:04.415Z,6.87
2022-12-23T20:49:31.125Z,8.87
2022-12-23T20:51:57.734Z,8.57
2022-12-23T20:54:31.559Z,26.57
2022-12-23T20:56:59.636Z,8.50
2022-12-23T20:59:26.407Z,14.23
2022-12-23T21:01:53.146Z,11.27
2022-12-23T21:04:20.375Z,10.80
2022-12-23T21:06:46.944Z,10.00
2022-12-23T21:09:15.428Z,10.37
2022-12-23T21:11:44.559Z,10.63
2022-12-23T21:14:11.463Z,5.43
2022-12-23T21:16:39.320Z,13.57
2022-12-23T21:19:07.372Z,4.80
2022-12-23T21:21:34.274Z,3.80
2022-12-23T21:24:04.247Z,10.80
2022-12-23T21:26:33.545Z,6.83
2022-12-23T21:29:01.853Z,8.87
2022-12-23T21:31:30.804Z,19.50
2022-12-23T21:33:58.277Z,9.63
2022-12-23T21:36:27.964Z,18.77
2022-12-23T21:38:55.149Z,16.97
2022-12-23T21:41:24.583Z,10.07
2022-12-23T21:43:51.991Z,6.07
2022-12-23T21:46:20.644Z,10.27
2022-12-23T21:48:48.150Z,10.50
2022-12-23T21:51:17.530Z,10.97
2022-12-23T21:53:45.741Z,17.33
2022-12-23T21:56:15.004Z,8.40
2022-12-23T21:58:42.235Z,14.10
2022-12-23T22:01:13.444Z,12.53
2022-12-23T22:03:40.220Z,6.27
2022-12-23T22:06:15.017Z,15.53
2022-12-23T22:08:41.707Z,8.67
2022-12-23T22:11:17.516Z,8.60
2022-12-23T22:13:45.478Z,7.90
2022-12-23T22:16:14.404Z,13.93
2022-12-23T22:18:41.317Z,9.50
2022-12-23T22:21:10.695Z,5.33
2022-12-23T22:23:38.315Z,8.37
2022-12-23T22:26:05.923Z,7.37
2022-12-23T22:28:35.237Z,12.73
2022-12-23T22:31:06.897Z,10.30
2022-12-23T22:33:34.511Z,8.43
2022-12-23T22:36:01.410Z,8.27
2022-12-23T22:38:28.156Z,11.37
2022-12-23T22:40:54.757Z,18.40
2022-12-23T22:43:21.372Z,9.80
2022-12-23T22:45:58.780Z,11.87
2022-12-23T22:48:26.289Z,18.60
2022-12-23T22:51:01.975Z,14.60
2022-12-23T22:53:30.030Z,10.30
2022-12-23T22:55:58.526Z,12.23
2022-12-23T22:58:25.992Z,11.13
2022-12-23T23:00:52.628Z,14.40
2022-12-23T23:03:19.367Z,12.57
2022-12-23T23:06:03.198Z,9.33
2022-12-23T23:08:30.521Z,30.47
2022-12-23T23:10:59.139Z,8.97
2022-12-23T23:13:29.274Z,15.70
2022-12-23T23:15:56.800Z,7.30
2022-12-23T23:18:24.446Z,9.43
2022-12-23T23:20:51.050Z,12.63
2022-12-23T23:23:17.647Z,15.07
2022-12-23T23:25:45.171Z,16.40
2022-12-23T23:28:11.873Z,19.20
2022-12-23T23:30:39.250Z,23.93
2022-12-23T23:33:07.301Z,15.47
2022-12-23T23:35:34.732Z,20.03
2022-12-23T23:38:01.517Z,22.27
2022-12-23T23:40:28.392Z,18.07
2022-12-23T23:42:54.944Z,9.70
2022-12-23T23:45:21.624Z,24.13
2022-12-23T23:47:48.233Z,16.23
2022-12-23T23:50:15.210Z,9.17
2022-12-23T23:52:41.773Z,17.83
2022-12-23T23:55:08.819Z,20.40
2022-12-23T23:57:35.390Z,13.20
